createdAt,value
2022-09-07T00:00:43.210Z,3.33
2022-09-07T00:03:10.202Z,1.93
2022-09-07T00:05:48.087Z,5.53
2022-09-07T00:08:16.634Z,4.30
2022-09-07T00:10:58.805Z,4.33
2022-09-07T00:13:28.645Z,4.23
2022-09-07T00:15:55.750Z,1.93
2022-09-07T00:18:22.444Z,4.33
2022-09-07T00:21:02.045Z,4.50
2022-09-07T00:23:30.230Z,1.90
2022-09-07T00:26:01.983Z,5.57
2022-09-07T00:28:29.399Z,4.60
2022-09-07T00:30:56.067Z,6.30
2022-09-07T00:33:22.791Z,6.80
2022-09-07T00:35:49.511Z,5.93
2022-09-07T00:38:16.397Z,4.67
2022-09-07T00:40:43.507Z,8.80
2022-09-07T00:43:17.490Z,7.13
2022-09-07T00:45:44.182Z,5.87
2022-09-07T00:48:19.999Z,6.20
2022-09-07T01:29:40.425Z,4.50
2022-09-07T01:46:26.958Z,3.43
2022-09-07T01:48:57.963Z,2.73
2022-09-07T01:51:31.552Z,4.93
2022-09-07T01:54:03.160Z,4.87
2022-09-07T01:56:52.085Z,3.50
2022-09-07T01:59:27.395Z,4.97
2022-09-07T02:02:02.057Z,4.53
2022-09-07T02:04:37.719Z,4.93
2022-09-07T02:07:17.305Z,5.37
2022-09-07T02:09:56.968Z,5.60
2022-09-07T02:12:31.054Z,3.03
2022-09-07T02:22:12.191Z,3.37
2022-09-07T02:24:43.200Z,3.77
2022-09-07T02:27:15.135Z,3.83
2022-09-07T02:29:43.696Z,3.70
2022-09-07T02:32:10.429Z,3.07
2022-09-07T02:34:37.278Z,3.63
2022-09-07T02:37:07.905Z,5.23
2022-09-07T02:39:35.057Z,5.67
2022-09-07T02:42:01.860Z,4.73
2022-09-07T02:44:35.663Z,4.87
2022-09-07T02:47:24.375Z,6.80
2022-09-07T02:50:09.251Z,2.83
2022-09-07T02:53:01.963Z,8.40
2022-09-07T02:55:34.538Z,4.63
2022-09-07T02:58:07.250Z,4.07
2022-09-07T03:00:43.468Z,5.17
2022-09-07T03:14:16.271Z,6.73
2022-09-07T03:16:43.465Z,8.90
2022-09-07T03:19:10.180Z,6.83
2022-09-07T03:21:36.805Z,9.33
2022-09-07T03:24:03.690Z,8.50
2022-09-07T03:26:30.419Z,8.67
2022-09-07T03:28:57.560Z,9.27
2022-09-07T03:31:24.394Z,10.70
2022-09-07T03:33:51.079Z,11.30
2022-09-07T03:36:17.756Z,8.97
2022-09-07T03:38:44.511Z,10.57
2022-09-07T03:41:11.144Z,11.93
2022-09-07T03:43:37.712Z,9.93
2022-09-07T03:46:06.892Z,13.03
2022-09-07T03:48:35.152Z,11.73
2022-09-07T03:51:04.647Z,13.50
2022-09-07T03:53:32.908Z,13.90
2022-09-07T03:56:02.246Z,12.93
2022-09-07T03:58:30.492Z,16.73
2022-09-07T04:00:58.179Z,17.13
2022-09-07T04:03:25.339Z,17.63
2022-09-07T04:05:52.119Z,17.83
2022-09-07T04:08:18.859Z,18.97
2022-09-07T04:10:45.502Z,21.57
2022-09-07T04:13:12.094Z,19.20
2022-09-07T04:15:38.691Z,23.23
2022-09-07T04:18:05.365Z,22.13
2022-09-07T04:20:31.971Z,25.30
2022-09-07T04:22:58.596Z,23.10
2022-09-07T04:25:25.291Z,25.40
2022-09-07T04:27:51.939Z,21.43
2022-09-07T04:30:18.576Z,18.67
2022-09-07T04:32:46.727Z,22.50
2022-09-07T04:35:13.797Z,21.37
2022-09-07T04:37:40.507Z,21.47
2022-09-07T04:40:07.535Z,21.03
2022-09-07T04:42:34.193Z,25.03
2022-09-07T04:45:00.887Z,20.90
2022-09-07T04:47:30.715Z,22.63
2022-09-07T04:49:57.451Z,20.10
2022-09-07T04:52:24.661Z,21.20
2022-09-07T04:54:51.811Z,19.90
2022-09-07T04:57:21.841Z,19.60
2022-09-07T04:59:48.888Z,18.13
2022-09-07T05:02:15.929Z,20.10
2022-09-07T05:04:42.722Z,15.73
2022-09-07T05:07:09.479Z,20.47
2022-09-07T05:09:36.778Z,18.83
2022-09-07T05:12:03.434Z,16.33
2022-09-07T05:14:30.044Z,19.60
2022-09-07T05:16:56.690Z,18.73
2022-09-07T05:19:23.484Z,18.60
2022-09-07T05:21:50.119Z,16.80
2022-09-07T05:24:16.858Z,16.90
2022-09-07T05:26:43.503Z,22.47
2022-09-07T05:31:57.042Z,16.13
2022-09-07T05:34:32.321Z,14.63
2022-09-07T05:36:59.579Z,15.07
2022-09-07T05:39:26.974Z,16.20
2022-09-07T05:41:54.184Z,15.07
2022-09-07T05:47:07.720Z,13.37
2022-09-07T05:49:34.744Z,14.50
2022-09-07T05:52:01.378Z,15.83
2022-09-07T05:54:27.974Z,12.80
2022-09-07T05:56:54.606Z,13.47
2022-09-07T05:59:21.217Z,16.43
2022-09-07T06:01:47.919Z,18.20
2022-09-07T06:04:14.563Z,15.23
2022-09-07T06:06:41.259Z,17.70
2022-09-07T06:09:08.167Z,15.23
2022-09-07T06:11:36.479Z,14.43
2022-09-07T06:14:03.126Z,14.80
2022-09-07T06:16:33.315Z,14.27
2022-09-07T06:18:59.972Z,16.40
2022-09-07T06:21:26.852Z,14.17
2022-09-07T06:23:53.477Z,16.70
2022-09-07T06:26:20.252Z,18.23
2022-09-07T06:28:50.253Z,17.77
2022-09-07T06:31:22.914Z,15.53
2022-09-07T06:33:50.872Z,15.13
2022-09-07T06:36:20.060Z,13.60
2022-09-07T06:38:47.575Z,13.10
2022-09-07T06:44:09.376Z,10.93
2022-09-07T06:49:23.943Z,15.73
2022-09-07T06:51:50.556Z,15.20
2022-09-07T06:57:09.140Z,15.00
2022-09-07T06:59:36.758Z,11.73
2022-09-07T07:02:04.163Z,12.47
2022-09-07T07:04:31.822Z,11.87
2022-09-07T07:06:59.402Z,10.30
2022-09-07T07:09:26.079Z,16.10
2022-09-07T07:11:52.678Z,15.87
2022-09-07T07:14:19.357Z,12.27
2022-09-07T07:16:46.786Z,15.73
2022-09-07T07:19:13.644Z,13.13
2022-09-07T07:22:03.550Z,18.47
2022-09-07T07:24:26.834Z,13.20
2022-09-07T07:26:53.630Z,16.90
2022-09-07T07:29:21.926Z,12.13
2022-09-07T07:31:49.513Z,11.77
2022-09-07T07:34:16.188Z,11.20
2022-09-07T07:36:42.785Z,13.07
2022-09-07T07:41:58.999Z,10.80
2022-09-07T07:44:28.386Z,12.23
2022-09-07T07:46:54.969Z,12.80
2022-09-07T07:49:21.793Z,11.13
2022-09-07T07:54:38.473Z,11.53
2022-09-07T07:57:05.840Z,8.80
2022-09-07T07:59:32.601Z,8.27
2022-09-07T08:02:05.500Z,7.27
2022-09-07T08:04:35.749Z,7.17
2022-09-07T08:07:08.607Z,8.47
2022-09-07T08:09:37.357Z,9.37
2022-09-07T08:12:04.138Z,7.33
2022-09-07T08:14:30.734Z,8.33
2022-09-07T08:16:57.325Z,9.60
2022-09-07T08:19:23.839Z,6.67
2022-09-07T08:21:50.302Z,7.63
2022-09-07T08:24:16.841Z,7.57
2022-09-07T08:26:43.400Z,9.23
2022-09-07T08:29:09.898Z,7.13
2022-09-07T08:31:36.493Z,7.73
2022-09-07T08:34:03.070Z,7.53
2022-09-07T08:36:31.854Z,7.40
2022-09-07T08:38:58.430Z,8.33
2022-09-07T08:41:30.768Z,8.03
2022-09-07T08:44:00.423Z,7.03
2022-09-07T08:46:36.182Z,8.37
2022-09-07T08:49:06.141Z,9.80
2022-09-07T08:51:46.878Z,7.47
2022-09-07T08:54:16.712Z,7.03
2022-09-07T09:00:14.472Z,7.03
2022-09-07T09:02:44.260Z,7.93
2022-09-07T09:05:20.285Z,10.50
2022-09-07T09:08:15.717Z,9.50
2022-09-07T09:11:11.639Z,9.50
2022-09-07T09:13:56.921Z,7.73
2022-09-07T09:16:35.858Z,7.77
2022-09-07T09:19:24.672Z,7.53
2022-09-07T09:22:07.740Z,7.00
2022-09-07T09:24:37.794Z,8.67
2022-09-07T09:27:04.427Z,13.27
2022-09-07T09:29:30.918Z,7.70
2022-09-07T09:31:57.457Z,6.13
2022-09-07T09:34:29.329Z,7.93
2022-09-07T09:36:57.901Z,5.73
2022-09-07T09:39:37.277Z,7.47
2022-09-07T09:42:23.784Z,8.93
2022-09-07T09:44:50.907Z,8.37
2022-09-07T09:47:30.234Z,6.23
2022-09-07T09:49:59.652Z,5.80
2022-09-07T09:52:36.981Z,5.67
2022-09-07T09:55:35.894Z,5.80
2022-09-07T10:01:33.557Z,6.77
2022-09-07T10:04:27.998Z,9.00
2022-09-07T10:07:06.103Z,7.17
2022-09-07T10:09:40.099Z,8.27
2022-09-07T10:12:08.821Z,8.37
2022-09-07T10:14:42.270Z,6.10
2022-09-07T10:17:25.718Z,9.30
2022-09-07T10:19:52.614Z,8.93
2022-09-07T10:22:31.243Z,5.90
2022-09-07T10:25:00.931Z,5.03
2022-09-07T10:27:30.129Z,5.07
2022-09-07T10:29:57.270Z,5.93
2022-09-07T10:32:52.825Z,7.70
2022-09-07T10:35:38.707Z,5.40
2022-09-07T10:38:28.895Z,5.00
2022-09-07T10:41:09.785Z,7.57
2022-09-07T10:43:42.416Z,5.07
2022-09-07T10:46:58.755Z,7.00
2022-09-07T10:52:41.727Z,6.50
2022-09-07T10:55:20.315Z,4.70
2022-09-07T10:58:03.054Z,5.47
2022-09-07T11:00:58.751Z,5.30
2022-09-07T11:03:53.069Z,5.80
2022-09-07T11:06:30.345Z,10.80
2022-09-07T11:09:18.599Z,7.70
2022-09-07T11:12:04.338Z,6.40
2022-09-07T11:14:38.817Z,6.07
2022-09-07T11:17:18.608Z,5.63
2022-09-07T11:19:47.990Z,7.50
2022-09-07T11:22:18.079Z,9.37
2022-09-07T11:27:51.313Z,7.13
2022-09-07T11:30:21.687Z,6.60
2022-09-07T11:32:55.466Z,7.17
2022-09-07T11:35:47.281Z,9.60
2022-09-07T11:38:29.021Z,7.57
2022-09-07T11:41:06.342Z,7.40
2022-09-07T11:43:41.348Z,8.30
2022-09-07T11:46:15.873Z,5.93
2022-09-07T11:48:58.003Z,7.73
2022-09-07T11:51:44.956Z,7.53
2022-09-07T11:54:17.381Z,7.33
2022-09-07T11:56:50.377Z,6.90
2022-09-07T11:59:36.759Z,6.60
2022-09-07T12:02:36.700Z,11.30
2022-09-07T12:05:23.724Z,6.80
2022-09-07T12:07:50.290Z,5.50
2022-09-07T12:10:35.740Z,6.03
2022-09-07T12:13:20.625Z,7.67
2022-09-07T12:15:59.470Z,5.37
2022-09-07T12:18:41.326Z,7.40
2022-09-07T12:21:30.853Z,7.83
2022-09-07T12:23:57.666Z,7.53
2022-09-07T12:26:33.605Z,8.53
2022-09-07T12:29:00.087Z,7.10
2022-09-07T12:31:57.795Z,11.57
2022-09-07T12:34:31.288Z,6.87
2022-09-07T12:37:10.099Z,6.10
2022-09-07T12:39:43.426Z,6.90
2022-09-07T12:45:30.999Z,10.00
2022-09-07T12:48:00.095Z,7.23
2022-09-07T12:50:29.579Z,6.07
2022-09-07T12:53:28.062Z,5.93
2022-09-07T12:56:16.291Z,8.40
2022-09-07T12:59:31.434Z,5.73
2022-09-07T13:02:35.401Z,7.13
2022-09-07T13:05:24.773Z,5.67
2022-09-07T13:08:09.719Z,5.80
2022-09-07T13:10:39.737Z,6.73
2022-09-07T13:13:14.683Z,4.07
2022-09-07T13:16:14.951Z,4.63
2022-09-07T13:18:46.425Z,5.23
2022-09-07T13:21:15.337Z,5.80
2022-09-07T13:23:45.508Z,5.40
2022-09-07T13:26:51.306Z,4.20
2022-09-07T13:29:24.103Z,5.10
2022-09-07T13:31:50.682Z,4.23
2022-09-07T13:34:37.531Z,4.00
2022-09-07T13:37:19.593Z,4.67
2022-09-07T13:39:48.579Z,5.27
2022-09-07T13:42:18.729Z,3.93
2022-09-07T13:44:54.684Z,5.33
2022-09-07T13:47:32.644Z,5.80
2022-09-07T13:49:59.131Z,6.37
2022-09-07T13:52:40.756Z,6.23
2022-09-07T13:55:28.378Z,3.90
2022-09-07T13:58:13.020Z,3.63
2022-09-07T14:00:55.034Z,6.07
2022-09-07T14:03:24.371Z,3.43
2022-09-07T14:06:17.094Z,4.60
2022-09-07T14:08:50.841Z,2.63
2022-09-07T14:11:23.710Z,3.70
2022-09-07T14:14:12.253Z,2.93
2022-09-07T14:16:39.064Z,3.00
2022-09-07T14:19:17.255Z,4.63
2022-09-07T14:21:43.996Z,3.03
2022-09-07T14:24:32.219Z,4.10
2022-09-07T14:27:00.191Z,3.70
2022-09-07T14:29:31.286Z,4.13
2022-09-07T14:32:00.124Z,4.37
2022-09-07T14:34:31.281Z,5.20
2022-09-07T14:37:02.305Z,3.10
2022-09-07T14:39:30.131Z,2.40
2022-09-07T14:41:58.890Z,3.60
2022-09-07T14:44:34.188Z,6.47
2022-09-07T14:47:06.034Z,4.67
2022-09-07T14:49:32.876Z,3.10
2022-09-07T14:52:00.660Z,2.03
2022-09-07T14:54:34.269Z,3.10
2022-09-07T14:57:05.652Z,2.93
2022-09-07T14:59:37.145Z,4.90
2022-09-07T15:02:19.493Z,4.97
2022-09-07T15:04:47.431Z,2.93
2022-09-07T15:07:37.737Z,3.27
2022-09-07T15:10:23.705Z,5.63
2022-09-07T15:13:01.322Z,4.73
2022-09-07T15:15:30.392Z,5.33
2022-09-07T15:18:08.536Z,4.63
2022-09-07T15:20:38.704Z,3.33
2022-09-07T15:23:18.461Z,2.90
2022-09-07T15:25:51.136Z,6.73
2022-09-07T15:34:11.514Z,2.93
2022-09-07T15:36:40.783Z,4.27
2022-09-07T15:39:14.306Z,5.57
2022-09-07T15:41:40.803Z,5.57
2022-09-07T15:44:07.645Z,4.53
2022-09-07T15:46:36.673Z,4.13
2022-09-07T15:49:03.789Z,5.43
2022-09-07T15:54:17.257Z,5.47
2022-09-07T15:57:47.672Z,3.57
2022-09-07T15:59:30.650Z,5.90
2022-09-07T16:01:58.240Z,3.63
2022-09-07T16:04:28.460Z,4.27
2022-09-07T16:06:55.068Z,2.33
2022-09-07T16:09:22.109Z,2.63
2022-09-07T16:11:50.118Z,5.70
2022-09-07T16:14:18.774Z,3.90
2022-09-07T16:19:34.947Z,3.43
2022-09-07T16:22:02.154Z,4.10
2022-09-07T16:24:28.820Z,4.50
2022-09-07T16:26:55.525Z,3.70
2022-09-07T16:29:22.072Z,4.47
2022-09-07T16:34:35.266Z,5.47
2022-09-07T16:37:01.851Z,4.83
2022-09-07T16:39:32.078Z,3.53
2022-09-07T16:42:00.089Z,3.37
2022-09-07T16:44:26.813Z,4.83
2022-09-07T16:46:53.383Z,5.13
2022-09-07T16:49:20.027Z,7.70
2022-09-07T16:51:46.637Z,6.27
2022-09-07T16:54:14.355Z,5.23
2022-09-07T16:56:40.875Z,5.50
2022-09-07T16:59:11.608Z,5.77
2022-09-07T17:01:38.486Z,6.97
2022-09-07T17:04:10.313Z,7.03
2022-09-07T17:06:37.515Z,6.67
2022-09-07T17:09:04.262Z,5.73
2022-09-07T17:11:34.033Z,3.37
2022-09-07T17:14:01.318Z,5.20
2022-09-07T17:16:30.797Z,3.97
2022-09-07T17:21:46.516Z,8.27
2022-09-07T17:24:13.132Z,10.30
2022-09-07T17:26:42.324Z,8.17
2022-09-07T17:29:10.446Z,6.40
2022-09-07T17:34:24.560Z,5.27
2022-09-07T17:36:51.630Z,6.73
2022-09-07T17:39:19.336Z,4.00
2022-09-07T17:41:48.441Z,3.97
2022-09-07T17:44:15.295Z,6.33
2022-09-07T17:46:41.799Z,7.33
2022-09-07T17:49:16.649Z,5.70
2022-09-07T17:51:44.005Z,4.93
2022-09-07T17:54:14.373Z,4.77
2022-09-07T17:56:42.020Z,5.30
2022-09-07T18:01:56.570Z,6.20
2022-09-07T18:04:23.650Z,6.70
2022-09-07T18:06:50.711Z,5.93
2022-09-07T18:09:17.600Z,7.80
2022-09-07T18:11:45.735Z,6.57
2022-09-07T18:14:14.715Z,5.33
2022-09-07T18:16:42.551Z,6.13
2022-09-07T18:19:11.118Z,5.23
2022-09-07T18:21:39.323Z,8.13
2022-09-07T18:24:13.523Z,6.33
2022-09-07T18:26:40.914Z,5.80
2022-09-07T18:29:25.810Z,7.77
2022-09-07T18:31:54.599Z,8.97
2022-09-07T18:34:21.369Z,6.27
2022-09-07T18:36:48.060Z,7.03
2022-09-07T18:39:14.722Z,7.47
2022-09-07T18:41:42.209Z,7.60
2022-09-07T18:46:55.924Z,6.20
2022-09-07T18:49:22.532Z,6.50
2022-09-07T18:54:35.764Z,6.30
2022-09-07T18:57:02.221Z,6.37
2022-09-07T18:59:29.810Z,4.57
2022-09-07T19:02:01.306Z,6.23
2022-09-07T19:07:17.747Z,7.57
2022-09-07T19:09:44.280Z,9.40
2022-09-07T19:12:10.756Z,8.40
2022-09-07T19:14:37.413Z,5.07
2022-09-07T19:17:04.019Z,4.50
2022-09-07T19:19:30.643Z,5.47
2022-09-07T19:21:58.344Z,6.03
2022-09-07T19:24:25.801Z,4.10
2022-09-07T19:26:55.699Z,4.23
2022-09-07T19:29:25.245Z,5.60
2022-09-07T19:32:06.762Z,8.90
2022-09-07T19:34:35.758Z,6.37
2022-09-07T19:37:02.894Z,7.53
2022-09-07T19:39:29.450Z,7.87
2022-09-07T19:41:56.316Z,6.23
2022-09-07T19:44:22.845Z,6.97
2022-09-07T19:46:49.563Z,8.40
2022-09-07T19:49:16.346Z,8.63
2022-09-07T19:51:45.263Z,5.67
2022-09-07T19:54:13.288Z,6.63
2022-09-07T19:56:42.779Z,6.83
2022-09-07T19:59:10.024Z,9.60
2022-09-07T20:01:37.914Z,5.53
2022-09-07T20:04:07.422Z,4.90
2022-09-07T20:06:38.058Z,9.77
2022-09-07T20:09:05.150Z,5.37
2022-09-07T20:11:32.654Z,6.30
2022-09-07T20:13:59.439Z,4.50
2022-09-07T20:16:28.106Z,4.93
2022-09-07T20:18:54.804Z,7.63
2022-09-07T20:21:23.574Z,5.17
2022-09-07T20:23:51.063Z,7.60
2022-09-07T20:26:20.037Z,8.10
2022-09-07T20:29:01.935Z,6.87
2022-09-07T20:31:38.788Z,8.73
2022-09-07T20:34:05.590Z,7.40
2022-09-07T20:36:32.318Z,6.83
2022-09-07T20:38:58.785Z,5.23
2022-09-07T20:41:31.284Z,7.80
2022-09-07T20:44:00.180Z,4.40
2022-09-07T20:46:28.421Z,9.07
2022-09-07T20:48:55.238Z,9.17
2022-09-07T20:51:22.159Z,7.60
2022-09-07T20:53:49.329Z,7.93
2022-09-07T20:56:24.876Z,9.80
2022-09-07T20:59:02.496Z,8.00
2022-09-07T21:01:31.493Z,7.30
2022-09-07T21:04:00.882Z,9.57
2022-09-07T21:06:28.763Z,5.27
2022-09-07T21:08:57.901Z,7.63
2022-09-07T21:11:35.228Z,6.57
2022-09-07T21:14:22.600Z,5.97
2022-09-07T21:16:49.080Z,7.60
2022-09-07T21:19:15.805Z,7.27
2022-09-07T21:21:43.057Z,7.67
2022-09-07T21:24:21.907Z,5.73
2022-09-07T21:26:49.792Z,3.60
2022-09-07T21:29:23.353Z,7.80
2022-09-07T21:31:50.438Z,6.13
2022-09-07T21:34:17.236Z,5.00
2022-09-07T21:36:43.879Z,6.20
2022-09-07T21:39:13.810Z,4.97
2022-09-07T21:41:41.292Z,5.10
2022-09-07T21:44:07.852Z,6.63
2022-09-07T21:46:34.435Z,4.63
2022-09-07T21:49:01.190Z,6.23
2022-09-07T21:51:28.159Z,6.53
2022-09-07T21:53:59.446Z,7.07
2022-09-07T21:56:30.325Z,10.27
2022-09-07T21:58:58.973Z,5.90
2022-09-07T22:01:27.126Z,8.17
2022-09-07T22:03:56.430Z,5.20
2022-09-07T22:06:23.841Z,6.37
2022-09-07T22:08:50.969Z,9.97
2022-09-07T22:11:20.197Z,8.70
2022-09-07T22:13:47.050Z,5.37
2022-09-07T22:16:15.085Z,6.70
2022-09-07T22:18:46.168Z,7.33
2022-09-07T22:21:18.992Z,5.90
2022-09-07T22:23:48.724Z,5.80
2022-09-07T22:26:19.157Z,6.77
2022-09-07T22:28:45.755Z,5.70
2022-09-07T22:31:24.477Z,5.33
2022-09-07T22:33:52.492Z,6.67
2022-09-07T22:36:21.918Z,4.13
2022-09-07T22:38:52.167Z,6.23
2022-09-07T22:41:20.967Z,7.70
2022-09-07T22:43:50.851Z,6.73
2022-09-07T22:46:19.827Z,7.33
2022-09-07T22:48:46.732Z,7.43
2022-09-07T22:51:13.359Z,6.00
2022-09-07T22:53:41.810Z,6.37
2022-09-07T22:56:09.679Z,4.83
2022-09-07T22:58:37.520Z,7.73
2022-09-07T23:01:05.712Z,5.87
2022-09-07T23:03:34.534Z,6.33
2022-09-07T23:06:01.587Z,8.47
2022-09-07T23:08:28.219Z,7.07
2022-09-07T23:10:54.724Z,7.87
2022-09-07T23:13:21.330Z,5.37
2022-09-07T23:15:48.417Z,6.80
2022-09-07T23:18:16.693Z,7.60
2022-09-07T23:20:43.345Z,5.17
2022-09-07T23:23:10.600Z,7.07
2022-09-07T23:25:38.163Z,7.97
2022-09-07T23:28:07.299Z,6.20
2022-09-07T23:30:35.728Z,5.43
2022-09-07T23:33:02.979Z,6.17
2022-09-07T23:35:29.784Z,6.73
2022-09-07T23:37:56.902Z,7.33
2022-09-07T23:40:23.925Z,4.97
2022-09-07T23:42:50.551Z,5.93
2022-09-07T23:45:17.146Z,7.50
2022-09-07T23:47:44.004Z,8.43
2022-09-07T23:50:10.973Z,9.17
2022-09-07T23:52:38.002Z,6.23
2022-09-07T23:55:04.859Z,4.00
2022-09-07T23:57:31.662Z,7.77
2022-09-07T23:59:58.872Z,4.53
